sensor_id;sensor_type;location;lat;lon;timestamp;P1;durP1;ratioP1;P2;durP2;ratioP2
52590;SDS011;38483;42.620;25.394;2024-02-23T00:02:20;18.00;;;11.30;;
52590;SDS011;38483;42.620;25.394;2024-02-23T00:05:41;19.93;;;11.90;;
52590;SDS011;38483;42.620;25.394;2024-02-23T00:09:03;19.40;;;12.53;;
52590;SDS011;38483;42.620;25.394;2024-02-23T00:12:23;16.93;;;11.13;;
52590;SDS011;38483;42.620;25.394;2024-02-23T00:15:44;17.77;;;12.27;;
52590;SDS011;38483;42.620;25.394;2024-02-23T00:19:06;20.50;;;11.97;;
52590;SDS011;38483;42.620;25.394;2024-02-23T00:22:26;18.30;;;11.83;;
52590;SDS011;38483;42.620;25.394;2024-02-23T00:25:46;17.37;;;12.33;;
52590;SDS011;38483;42.620;25.394;2024-02-23T00:29:08;19.50;;;11.80;;
52590;SDS011;38483;42.620;25.394;2024-02-23T00:32:30;17.30;;;11.80;;
52590;SDS011;38483;42.620;25.394;2024-02-23T00:35:51;17.27;;;11.73;;
52590;SDS011;38483;42.620;25.394;2024-02-23T00:39:12;18.07;;;12.00;;
52590;SDS011;38483;42.620;25.394;2024-02-23T00:42:32;16.87;;;10.93;;
52590;SDS011;38483;42.620;25.394;2024-02-23T00:45:53;16.10;;;11.83;;
52590;SDS011;38483;42.620;25.394;2024-02-23T00:49:14;19.93;;;12.27;;
52590;SDS011;38483;42.620;25.394;2024-02-23T00:52:34;17.57;;;11.17;;
52590;SDS011;38483;42.620;25.394;2024-02-23T00:55:55;21.00;;;11.80;;
52590;SDS011;38483;42.620;25.394;2024-02-23T00:59:16;17.67;;;11.73;;
52590;SDS011;38483;42.620;25.394;2024-02-23T01:02:37;18.73;;;11.90;;
52590;SDS011;38483;42.620;25.394;2024-02-23T01:05:57;20.00;;;11.83;;
52590;SDS011;38483;42.620;25.394;2024-02-23T01:09:18;18.87;;;11.93;;
52590;SDS011;38483;42.620;25.394;2024-02-23T01:12:39;17.27;;;11.80;;
52590;SDS011;38483;42.620;25.394;2024-02-23T01:15:59;20.20;;;12.93;;
52590;SDS011;38483;42.620;25.394;2024-02-23T01:19:20;20.20;;;12.70;;
52590;SDS011;38483;42.620;25.394;2024-02-23T01:22:41;18.87;;;12.53;;
52590;SDS011;38483;42.620;25.394;2024-02-23T01:26:01;23.23;;;13.93;;
52590;SDS011;38483;42.620;25.394;2024-02-23T01:29:22;25.10;;;13.93;;
52590;SDS011;38483;42.620;25.394;2024-02-23T01:32:43;20.97;;;13.97;;
52590;SDS011;38483;42.620;25.394;2024-02-23T01:36:04;23.80;;;14.77;;
52590;SDS011;38483;42.620;25.394;2024-02-23T01:39:24;21.63;;;14.43;;
52590;SDS011;38483;42.620;25.394;2024-02-23T01:42:45;20.93;;;13.77;;
52590;SDS011;38483;42.620;25.394;2024-02-23T01:46:05;21.10;;;13.63;;
52590;SDS011;38483;42.620;25.394;2024-02-23T01:49:26;19.27;;;12.93;;
52590;SDS011;38483;42.620;25.394;2024-02-23T01:52:49;19.20;;;12.03;;
52590;SDS011;38483;42.620;25.394;2024-02-23T01:56:09;21.10;;;13.57;;
52590;SDS011;38483;42.620;25.394;2024-02-23T01:59:30;22.43;;;13.90;;
52590;SDS011;38483;42.620;25.394;2024-02-23T02:02:54;18.50;;;12.93;;
52590;SDS011;38483;42.620;25.394;2024-02-23T02:06:14;21.73;;;13.63;;
52590;SDS011;38483;42.620;25.394;2024-02-23T02:09:35;21.93;;;14.03;;
52590;SDS011;38483;42.620;25.394;2024-02-23T02:13:01;22.93;;;14.60;;
52590;SDS011;38483;42.620;25.394;2024-02-23T02:16:17;21.60;;;14.43;;
52590;SDS011;38483;42.620;25.394;2024-02-23T02:19:37;23.03;;;15.77;;
52590;SDS011;38483;42.620;25.394;2024-02-23T02:23:01;23.60;;;15.13;;
52590;SDS011;38483;42.620;25.394;2024-02-23T02:26:22;22.90;;;13.80;;
52590;SDS011;38483;42.620;25.394;2024-02-23T02:29:42;23.87;;;15.10;;
52590;SDS011;38483;42.620;25.394;2024-02-23T02:33:03;23.20;;;14.70;;
52590;SDS011;38483;42.620;25.394;2024-02-23T02:36:24;26.93;;;14.87;;
52590;SDS011;38483;42.620;25.394;2024-02-23T02:39:44;23.47;;;14.47;;
52590;SDS011;38483;42.620;25.394;2024-02-23T02:43:05;23.80;;;13.87;;
52590;SDS011;38483;42.620;25.394;2024-02-23T02:46:26;20.07;;;12.87;;
52590;SDS011;38483;42.620;25.394;2024-02-23T02:49:46;20.10;;;12.83;;
52590;SDS011;38483;42.620;25.394;2024-02-23T02:53:07;17.83;;;11.70;;
52590;SDS011;38483;42.620;25.394;2024-02-23T02:56:28;18.47;;;12.57;;
52590;SDS011;38483;42.620;25.394;2024-02-23T02:59:48;17.30;;;11.20;;
52590;SDS011;38483;42.620;25.394;2024-02-23T03:03:11;18.03;;;10.67;;
52590;SDS011;38483;42.620;25.394;2024-02-23T03:06:32;16.77;;;10.30;;
52590;SDS011;38483;42.620;25.394;2024-02-23T03:09:53;14.50;;;9.53;;
52590;SDS011;38483;42.620;25.394;2024-02-23T03:13:13;16.60;;;10.13;;
52590;SDS011;38483;42.620;25.394;2024-02-23T03:16:34;18.70;;;10.03;;
52590;SDS011;38483;42.620;25.394;2024-02-23T03:19:55;18.70;;;9.83;;
52590;SDS011;38483;42.620;25.394;2024-02-23T03:23:15;17.27;;;11.07;;
52590;SDS011;38483;42.620;25.394;2024-02-23T03:26:36;27.67;;;11.30;;
52590;SDS011;38483;42.620;25.394;2024-02-23T03:29:57;20.00;;;11.50;;
52590;SDS011;38483;42.620;25.394;2024-02-23T03:33:17;20.90;;;13.50;;
52590;SDS011;38483;42.620;25.394;2024-02-23T03:36:38;21.97;;;14.00;;
52590;SDS011;38483;42.620;25.394;2024-02-23T03:39:59;20.70;;;13.57;;
52590;SDS011;38483;42.620;25.394;2024-02-23T03:43:19;21.90;;;13.43;;
52590;SDS011;38483;42.620;25.394;2024-02-23T03:46:40;24.93;;;13.83;;
52590;SDS011;38483;42.620;25.394;2024-02-23T03:50:01;21.97;;;13.73;;
52590;SDS011;38483;42.620;25.394;2024-02-23T03:53:21;25.37;;;14.33;;
52590;SDS011;38483;42.620;25.394;2024-02-23T03:56:42;21.90;;;14.30;;
52590;SDS011;38483;42.620;25.394;2024-02-23T04:00:03;26.93;;;14.10;;
52590;SDS011;38483;42.620;25.394;2024-02-23T04:03:23;22.10;;;12.90;;
52590;SDS011;38483;42.620;25.394;2024-02-23T04:06:44;22.63;;;13.63;;
52590;SDS011;38483;42.620;25.394;2024-02-23T04:10:05;21.20;;;13.67;;
52590;SDS011;38483;42.620;25.394;2024-02-23T04:13:25;20.27;;;14.03;;
52590;SDS011;38483;42.620;25.394;2024-02-23T04:16:46;26.40;;;14.10;;
52590;SDS011;38483;42.620;25.394;2024-02-23T04:20:07;26.17;;;14.57;;
52590;SDS011;38483;42.620;25.394;2024-02-23T04:22:54;23.27;;;13.40;;
52590;SDS011;38483;42.620;25.394;2024-02-23T04:25:21;19.67;;;12.97;;
52590;SDS011;38483;42.620;25.394;2024-02-23T04:27:48;20.10;;;13.47;;
52590;SDS011;38483;42.620;25.394;2024-02-23T04:30:15;22.97;;;13.87;;
52590;SDS011;38483;42.620;25.394;2024-02-23T04:32:42;23.87;;;14.00;;
52590;SDS011;38483;42.620;25.394;2024-02-23T04:35:10;26.07;;;15.20;;
52590;SDS011;38483;42.620;25.394;2024-02-23T04:37:38;33.33;;;17.30;;
52590;SDS011;38483;42.620;25.394;2024-02-23T04:40:05;23.77;;;16.27;;
52590;SDS011;38483;42.620;25.394;2024-02-23T04:42:33;22.70;;;14.43;;
52590;SDS011;38483;42.620;25.394;2024-02-23T04:45:00;20.83;;;13.63;;
52590;SDS011;38483;42.620;25.394;2024-02-23T04:47:29;22.13;;;13.50;;
52590;SDS011;38483;42.620;25.394;2024-02-23T04:49:56;19.60;;;12.73;;
52590;SDS011;38483;42.620;25.394;2024-02-23T04:52:24;20.83;;;13.87;;
52590;SDS011;38483;42.620;25.394;2024-02-23T04:54:51;19.87;;;12.63;;
52590;SDS011;38483;42.620;25.394;2024-02-23T04:57:18;19.03;;;13.23;;
52590;SDS011;38483;42.620;25.394;2024-02-23T04:59:45;20.13;;;12.30;;
52590;SDS011;38483;42.620;25.394;2024-02-23T05:02:12;20.97;;;11.90;;
52590;SDS011;38483;42.620;25.394;2024-02-23T05:04:40;18.90;;;12.30;;
52590;SDS011;38483;42.620;25.394;2024-02-23T05:07:07;21.87;;;12.67;;
52590;SDS011;38483;42.620;25.394;2024-02-23T05:09:34;17.87;;;12.13;;
52590;SDS011;38483;42.620;25.394;2024-02-23T05:12:01;18.90;;;11.80;;
52590;SDS011;38483;42.620;25.394;2024-02-23T05:14:29;17.00;;;11.57;;
52590;SDS011;38483;42.620;25.394;2024-02-23T05:16:56;17.07;;;12.17;;
52590;SDS011;38483;42.620;25.394;2024-02-23T05:19:23;21.50;;;13.33;;
52590;SDS011;38483;42.620;25.394;2024-02-23T05:21:50;20.70;;;12.47;;
52590;SDS011;38483;42.620;25.394;2024-02-23T05:24:17;22.67;;;13.27;;
52590;SDS011;38483;42.620;25.394;2024-02-23T05:26:44;23.97;;;13.30;;
52590;SDS011;38483;42.620;25.394;2024-02-23T05:29:11;19.93;;;12.77;;
52590;SDS011;38483;42.620;25.394;2024-02-23T05:31:47;22.47;;;13.23;;
52590;SDS011;38483;42.620;25.394;2024-02-23T05:34:16;21.07;;;13.40;;
52590;SDS011;38483;42.620;25.394;2024-02-23T05:36:44;21.00;;;13.33;;
52590;SDS011;38483;42.620;25.394;2024-02-23T05:39:15;23.23;;;14.53;;
52590;SDS011;38483;42.620;25.394;2024-02-23T05:41:42;21.73;;;13.73;;
52590;SDS011;38483;42.620;25.394;2024-02-23T05:44:09;21.90;;;14.13;;
52590;SDS011;38483;42.620;25.394;2024-02-23T05:46:37;24.70;;;15.10;;
52590;SDS011;38483;42.620;25.394;2024-02-23T05:49:03;26.20;;;14.60;;
52590;SDS011;38483;42.620;25.394;2024-02-23T05:51:31;22.60;;;14.93;;
52590;SDS011;38483;42.620;25.394;2024-02-23T05:53:58;25.20;;;14.93;;
52590;SDS011;38483;42.620;25.394;2024-02-23T05:56:25;26.63;;;14.67;;
52590;SDS011;38483;42.620;25.394;2024-02-23T05:58:52;21.77;;;15.00;;
52590;SDS011;38483;42.620;25.394;2024-02-23T06:01:19;22.77;;;14.97;;
52590;SDS011;38483;42.620;25.394;2024-02-23T06:03:46;22.93;;;13.93;;
52590;SDS011;38483;42.620;25.394;2024-02-23T06:06:14;21.87;;;14.73;;
52590;SDS011;38483;42.620;25.394;2024-02-23T06:08:41;19.17;;;12.73;;
52590;SDS011;38483;42.620;25.394;2024-02-23T06:11:11;20.90;;;12.87;;
52590;SDS011;38483;42.620;25.394;2024-02-23T06:13:38;20.27;;;12.57;;
52590;SDS011;38483;42.620;25.394;2024-02-23T06:16:09;22.83;;;13.50;;
52590;SDS011;38483;42.620;25.394;2024-02-23T06:18:40;20.27;;;13.47;;
52590;SDS011;38483;42.620;25.394;2024-02-23T06:21:13;20.47;;;13.47;;
52590;SDS011;38483;42.620;25.394;2024-02-23T06:23:41;19.30;;;13.50;;
52590;SDS011;38483;42.620;25.394;2024-02-23T06:26:08;22.47;;;14.17;;
52590;SDS011;38483;42.620;25.394;2024-02-23T06:28:36;24.23;;;13.63;;
52590;SDS011;38483;42.620;25.394;2024-02-23T06:31:05;22.57;;;14.23;;
52590;SDS011;38483;42.620;25.394;2024-02-23T06:33:32;26.40;;;16.27;;
52590;SDS011;38483;42.620;25.394;2024-02-23T06:36:00;25.30;;;16.47;;
52590;SDS011;38483;42.620;25.394;2024-02-23T06:38:27;27.07;;;16.57;;
52590;SDS011;38483;42.620;25.394;2024-02-23T06:40:55;27.47;;;16.60;;
52590;SDS011;38483;42.620;25.394;2024-02-23T06:43:23;26.47;;;16.30;;
52590;SDS011;38483;42.620;25.394;2024-02-23T06:45:50;24.17;;;16.03;;
52590;SDS011;38483;42.620;25.394;2024-02-23T06:48:18;27.30;;;16.33;;
52590;SDS011;38483;42.620;25.394;2024-02-23T06:50:45;26.43;;;16.00;;
52590;SDS011;38483;42.620;25.394;2024-02-23T06:53:12;27.80;;;15.80;;
52590;SDS011;38483;42.620;25.394;2024-02-23T06:55:39;23.83;;;15.90;;
52590;SDS011;38483;42.620;25.394;2024-02-23T06:58:06;22.03;;;14.80;;
52590;SDS011;38483;42.620;25.394;2024-02-23T07:00:34;24.20;;;14.50;;
52590;SDS011;38483;42.620;25.394;2024-02-23T07:03:01;20.03;;;13.83;;
52590;SDS011;38483;42.620;25.394;2024-02-23T07:05:30;26.40;;;14.77;;
52590;SDS011;38483;42.620;25.394;2024-02-23T07:07:59;25.73;;;17.13;;
52590;SDS011;38483;42.620;25.394;2024-02-23T07:10:26;24.40;;;15.60;;
52590;SDS011;38483;42.620;25.394;2024-02-23T07:12:53;24.33;;;16.03;;
52590;SDS011;38483;42.620;25.394;2024-02-23T07:15:21;27.93;;;16.60;;
52590;SDS011;38483;42.620;25.394;2024-02-23T07:17:48;23.77;;;14.00;;
52590;SDS011;38483;42.620;25.394;2024-02-23T07:20:15;24.83;;;15.57;;
52590;SDS011;38483;42.620;25.394;2024-02-23T07:22:43;27.87;;;16.07;;
52590;SDS011;38483;42.620;25.394;2024-02-23T07:25:11;24.47;;;15.63;;
52590;SDS011;38483;42.620;25.394;2024-02-23T07:27:38;21.37;;;14.17;;
52590;SDS011;38483;42.620;25.394;2024-02-23T07:30:06;26.43;;;15.77;;
52590;SDS011;38483;42.620;25.394;2024-02-23T07:32:33;24.10;;;16.03;;
52590;SDS011;38483;42.620;25.394;2024-02-23T07:35:01;25.07;;;17.10;;
52590;SDS011;38483;42.620;25.394;2024-02-23T07:37:30;28.27;;;16.80;;
52590;SDS011;38483;42.620;25.394;2024-02-23T07:39:57;32.57;;;18.73;;
52590;SDS011;38483;42.620;25.394;2024-02-23T07:42:24;24.97;;;15.43;;
52590;SDS011;38483;42.620;25.394;2024-02-23T07:44:51;30.00;;;19.73;;
52590;SDS011;38483;42.620;25.394;2024-02-23T07:47:18;31.23;;;16.97;;
52590;SDS011;38483;42.620;25.394;2024-02-23T07:49:45;26.37;;;17.77;;
52590;SDS011;38483;42.620;25.394;2024-02-23T07:52:12;22.43;;;15.87;;
52590;SDS011;38483;42.620;25.394;2024-02-23T07:54:39;25.30;;;16.77;;
52590;SDS011;38483;42.620;25.394;2024-02-23T07:57:06;29.90;;;18.73;;
52590;SDS011;38483;42.620;25.394;2024-02-23T07:59:34;27.40;;;17.13;;
52590;SDS011;38483;42.620;25.394;2024-02-23T08:02:01;28.20;;;17.73;;
52590;SDS011;38483;42.620;25.394;2024-02-23T08:04:29;30.83;;;20.30;;
52590;SDS011;38483;42.620;25.394;2024-02-23T08:06:56;25.20;;;17.37;;
52590;SDS011;38483;42.620;25.394;2024-02-23T08:09:23;27.30;;;17.57;;
52590;SDS011;38483;42.620;25.394;2024-02-23T08:11:50;26.17;;;17.07;;
52590;SDS011;38483;42.620;25.394;2024-02-23T08:14:18;21.67;;;15.07;;
52590;SDS011;38483;42.620;25.394;2024-02-23T08:16:45;22.00;;;16.30;;
52590;SDS011;38483;42.620;25.394;2024-02-23T08:19:12;22.27;;;15.80;;
52590;SDS011;38483;42.620;25.394;2024-02-23T08:21:39;23.97;;;16.93;;
52590;SDS011;38483;42.620;25.394;2024-02-23T08:24:07;24.27;;;17.00;;
52590;SDS011;38483;42.620;25.394;2024-02-23T08:26:34;23.00;;;16.30;;
52590;SDS011;38483;42.620;25.394;2024-02-23T08:29:01;25.23;;;16.00;;
52590;SDS011;38483;42.620;25.394;2024-02-23T08:31:29;26.17;;;18.80;;
52590;SDS011;38483;42.620;25.394;2024-02-23T08:33:56;26.93;;;18.90;;
52590;SDS011;38483;42.620;25.394;2024-02-23T08:36:23;25.60;;;15.33;;
52590;SDS011;38483;42.620;25.394;2024-02-23T08:38:50;22.87;;;16.77;;
52590;SDS011;38483;42.620;25.394;2024-02-23T08:41:18;24.67;;;16.10;;
52590;SDS011;38483;42.620;25.394;2024-02-23T08:43:45;24.93;;;17.03;;
52590;SDS011;38483;42.620;25.394;2024-02-23T08:46:12;25.40;;;16.40;;
52590;SDS011;38483;42.620;25.394;2024-02-23T08:48:39;23.53;;;16.03;;
52590;SDS011;38483;42.620;25.394;2024-02-23T08:51:07;25.60;;;16.20;;
52590;SDS011;38483;42.620;25.394;2024-02-23T08:53:34;22.33;;;15.60;;
52590;SDS011;38483;42.620;25.394;2024-02-23T08:56:01;22.37;;;14.97;;
52590;SDS011;38483;42.620;25.394;2024-02-23T08:58:28;21.40;;;14.00;;
52590;SDS011;38483;42.620;25.394;2024-02-23T09:00:55;20.70;;;14.30;;
52590;SDS011;38483;42.620;25.394;2024-02-23T09:03:23;24.03;;;14.53;;
52590;SDS011;38483;42.620;25.394;2024-02-23T09:05:50;22.97;;;14.20;;
52590;SDS011;38483;42.620;25.394;2024-02-23T09:08:17;14.10;;;11.07;;
52590;SDS011;38483;42.620;25.394;2024-02-23T09:10:44;23.17;;;11.40;;
52590;SDS011;38483;42.620;25.394;2024-02-23T09:13:11;11.13;;;9.00;;
52590;SDS011;38483;42.620;25.394;2024-02-23T09:15:38;11.50;;;8.10;;
52590;SDS011;38483;42.620;25.394;2024-02-23T09:18:06;11.87;;;8.63;;
52590;SDS011;38483;42.620;25.394;2024-02-23T09:20:33;9.73;;;7.67;;
52590;SDS011;38483;42.620;25.394;2024-02-23T09:23:00;14.40;;;10.10;;
52590;SDS011;38483;42.620;25.394;2024-02-23T09:25:27;12.53;;;9.37;;
52590;SDS011;38483;42.620;25.394;2024-02-23T09:27:57;11.30;;;8.77;;
52590;SDS011;38483;42.620;25.394;2024-02-23T09:30:24;10.53;;;8.40;;
52590;SDS011;38483;42.620;25.394;2024-02-23T09:32:51;12.43;;;8.47;;
52590;SDS011;38483;42.620;25.394;2024-02-23T09:35:19;12.37;;;8.57;;
52590;SDS011;38483;42.620;25.394;2024-02-23T09:37:46;9.83;;;7.50;;
52590;SDS011;38483;42.620;25.394;2024-02-23T09:40:14;9.80;;;8.03;;
52590;SDS011;38483;42.620;25.394;2024-02-23T09:42:42;10.13;;;7.17;;
52590;SDS011;38483;42.620;25.394;2024-02-23T09:45:10;15.63;;;10.20;;
52590;SDS011;38483;42.620;25.394;2024-02-23T09:47:38;10.63;;;7.90;;
52590;SDS011;38483;42.620;25.394;2024-02-23T09:50:07;8.07;;;6.57;;
52590;SDS011;38483;42.620;25.394;2024-02-23T09:52:35;9.17;;;6.57;;
52590;SDS011;38483;42.620;25.394;2024-02-23T09:55:03;8.00;;;6.30;;
52590;SDS011;38483;42.620;25.394;2024-02-23T09:57:30;10.50;;;6.80;;
52590;SDS011;38483;42.620;25.394;2024-02-23T09:59:57;9.97;;;8.03;;
52590;SDS011;38483;42.620;25.394;2024-02-23T10:02:24;10.83;;;7.77;;
52590;SDS011;38483;42.620;25.394;2024-02-23T10:04:52;12.00;;;9.10;;
52590;SDS011;38483;42.620;25.394;2024-02-23T10:07:23;23.37;;;14.93;;
52590;SDS011;38483;42.620;25.394;2024-02-23T10:09:52;9.50;;;7.07;;
52590;SDS011;38483;42.620;25.394;2024-02-23T10:12:19;22.97;;;15.03;;
52590;SDS011;38483;42.620;25.394;2024-02-23T10:14:47;9.50;;;7.67;;
52590;SDS011;38483;42.620;25.394;2024-02-23T10:17:14;9.73;;;7.37;;
52590;SDS011;38483;42.620;25.394;2024-02-23T10:19:41;8.83;;;7.17;;
52590;SDS011;38483;42.620;25.394;2024-02-23T10:22:08;7.87;;;6.70;;
52590;SDS011;38483;42.620;25.394;2024-02-23T10:24:36;9.33;;;7.43;;
52590;SDS011;38483;42.620;25.394;2024-02-23T10:27:03;10.20;;;6.43;;
52590;SDS011;38483;42.620;25.394;2024-02-23T10:29:30;10.63;;;6.60;;
52590;SDS011;38483;42.620;25.394;2024-02-23T10:31:58;7.80;;;6.53;;
52590;SDS011;38483;42.620;25.394;2024-02-23T10:34:26;7.40;;;6.23;;
52590;SDS011;38483;42.620;25.394;2024-02-23T10:36:55;11.93;;;9.73;;
52590;SDS011;38483;42.620;25.394;2024-02-23T10:39:23;7.80;;;6.80;;
52590;SDS011;38483;42.620;25.394;2024-02-23T10:41:58;9.00;;;5.97;;
52590;SDS011;38483;42.620;25.394;2024-02-23T10:44:30;8.40;;;6.43;;
52590;SDS011;38483;42.620;25.394;2024-02-23T10:46:58;8.63;;;6.90;;
52590;SDS011;38483;42.620;25.394;2024-02-23T10:49:29;9.37;;;6.43;;
52590;SDS011;38483;42.620;25.394;2024-02-23T10:51:58;9.33;;;6.30;;
52590;SDS011;38483;42.620;25.394;2024-02-23T10:54:26;6.80;;;5.37;;
52590;SDS011;38483;42.620;25.394;2024-02-23T10:56:53;13.40;;;6.80;;
52590;SDS011;38483;42.620;25.394;2024-02-23T10:59:23;8.80;;;6.30;;
52590;SDS011;38483;42.620;25.394;2024-02-23T11:01:53;9.17;;;6.57;;
52590;SDS011;38483;42.620;25.394;2024-02-23T11:04:26;7.50;;;6.10;;
52590;SDS011;38483;42.620;25.394;2024-02-23T11:06:55;7.50;;;6.43;;
52590;SDS011;38483;42.620;25.394;2024-02-23T11:09:26;7.87;;;6.33;;
52590;SDS011;38483;42.620;25.394;2024-02-23T11:11:55;8.10;;;6.13;;
52590;SDS011;38483;42.620;25.394;2024-02-23T11:14:31;9.13;;;5.73;;
52590;SDS011;38483;42.620;25.394;2024-02-23T11:16:59;10.03;;;6.47;;
52590;SDS011;38483;42.620;25.394;2024-02-23T11:19:34;9.93;;;6.70;;
52590;SDS011;38483;42.620;25.394;2024-02-23T11:22:03;7.17;;;5.90;;
52590;SDS011;38483;42.620;25.394;2024-02-23T11:24:31;8.20;;;6.07;;
52590;SDS011;38483;42.620;25.394;2024-02-23T11:26:59;7.90;;;6.30;;
52590;SDS011;38483;42.620;25.394;2024-02-23T11:29:27;8.27;;;5.40;;
52590;SDS011;38483;42.620;25.394;2024-02-23T11:31:56;7.30;;;5.77;;
52590;SDS011;38483;42.620;25.394;2024-02-23T11:34:28;6.73;;;5.17;;
52590;SDS011;38483;42.620;25.394;2024-02-23T11:36:55;7.37;;;5.90;;
52590;SDS011;38483;42.620;25.394;2024-02-23T11:39:23;7.23;;;5.27;;
52590;SDS011;38483;42.620;25.394;2024-02-23T11:41:50;8.73;;;6.20;;
52590;SDS011;38483;42.620;25.394;2024-02-23T11:44:17;7.40;;;5.77;;
52590;SDS011;38483;42.620;25.394;2024-02-23T11:46:45;6.50;;;5.40;;
52590;SDS011;38483;42.620;25.394;2024-02-23T11:49:14;5.90;;;5.17;;
52590;SDS011;38483;42.620;25.394;2024-02-23T11:51:43;8.13;;;5.40;;
52590;SDS011;38483;42.620;25.394;2024-02-23T11:54:11;6.13;;;5.30;;
52590;SDS011;38483;42.620;25.394;2024-02-23T11:56:40;6.83;;;5.60;;
52590;SDS011;38483;42.620;25.394;2024-02-23T11:59:07;6.20;;;5.30;;
52590;SDS011;38483;42.620;25.394;2024-02-23T12:01:35;5.80;;;4.60;;
52590;SDS011;38483;42.620;25.394;2024-02-23T12:04:03;6.90;;;5.40;;
52590;SDS011;38483;42.620;25.394;2024-02-23T12:06:30;8.23;;;5.67;;
52590;SDS011;38483;42.620;25.394;2024-02-23T12:08:59;7.33;;;6.10;;
52590;SDS011;38483;42.620;25.394;2024-02-23T12:11:27;6.77;;;4.83;;
52590;SDS011;38483;42.620;25.394;2024-02-23T12:13:55;7.57;;;5.33;;
52590;SDS011;38483;42.620;25.394;2024-02-23T12:16:26;6.20;;;4.63;;
52590;SDS011;38483;42.620;25.394;2024-02-23T12:18:53;7.07;;;5.83;;
52590;SDS011;38483;42.620;25.394;2024-02-23T12:21:23;8.47;;;5.13;;
52590;SDS011;38483;42.620;25.394;2024-02-23T12:23:51;5.67;;;4.40;;
52590;SDS011;38483;42.620;25.394;2024-02-23T12:26:18;5.43;;;4.90;;
52590;SDS011;38483;42.620;25.394;2024-02-23T12:28:46;6.43;;;5.20;;
52590;SDS011;38483;42.620;25.394;2024-02-23T12:31:13;8.27;;;5.10;;
52590;SDS011;38483;42.620;25.394;2024-02-23T12:33:41;5.63;;;4.70;;
52590;SDS011;38483;42.620;25.394;2024-02-23T12:36:08;9.03;;;5.10;;
52590;SDS011;38483;42.620;25.394;2024-02-23T12:38:37;6.37;;;5.07;;
52590;SDS011;38483;42.620;25.394;2024-02-23T12:41:04;8.10;;;5.43;;
52590;SDS011;38483;42.620;25.394;2024-02-23T12:43:31;7.07;;;5.40;;
52590;SDS011;38483;42.620;25.394;2024-02-23T12:45:59;9.87;;;5.40;;
52590;SDS011;38483;42.620;25.394;2024-02-23T12:48:28;6.73;;;5.60;;
52590;SDS011;38483;42.620;25.394;2024-02-23T12:50:56;5.30;;;4.50;;
52590;SDS011;38483;42.620;25.394;2024-02-23T12:53:33;6.97;;;5.50;;
52590;SDS011;38483;42.620;25.394;2024-02-23T12:56:05;5.87;;;5.00;;
52590;SDS011;38483;42.620;25.394;2024-02-23T12:58:43;7.83;;;5.23;;
52590;SDS011;38483;42.620;25.394;2024-02-23T13:01:11;7.40;;;5.17;;
52590;SDS011;38483;42.620;25.394;2024-02-23T13:03:39;6.80;;;4.70;;
52590;SDS011;38483;42.620;25.394;2024-02-23T13:06:09;8.10;;;5.57;;
52590;SDS011;38483;42.620;25.394;2024-02-23T13:08:36;6.53;;;5.17;;
52590;SDS011;38483;42.620;25.394;2024-02-23T13:11:06;7.50;;;5.23;;
52590;SDS011;38483;42.620;25.394;2024-02-23T13:13:33;8.20;;;5.10;;
52590;SDS011;38483;42.620;25.394;2024-02-23T13:16:01;5.10;;;4.60;;
52590;SDS011;38483;42.620;25.394;2024-02-23T13:18:28;9.47;;;6.23;;
52590;SDS011;38483;42.620;25.394;2024-02-23T13:20:55;8.40;;;5.67;;
52590;SDS011;38483;42.620;25.394;2024-02-23T13:23:22;6.80;;;4.90;;
52590;SDS011;38483;42.620;25.394;2024-02-23T13:25:49;6.33;;;4.70;;
52590;SDS011;38483;42.620;25.394;2024-02-23T13:28:16;7.73;;;5.20;;
52590;SDS011;38483;42.620;25.394;2024-02-23T13:30:43;6.23;;;5.13;;
52590;SDS011;38483;42.620;25.394;2024-02-23T13:33:11;6.33;;;5.03;;
52590;SDS011;38483;42.620;25.394;2024-02-23T13:35:38;7.40;;;5.53;;
52590;SDS011;38483;42.620;25.394;2024-02-23T13:38:06;7.97;;;5.07;;
52590;SDS011;38483;42.620;25.394;2024-02-23T13:40:34;6.07;;;4.37;;
52590;SDS011;38483;42.620;25.394;2024-02-23T13:43:01;8.77;;;4.90;;
52590;SDS011;38483;42.620;25.394;2024-02-23T13:45:28;4.40;;;4.00;;
52590;SDS011;38483;42.620;25.394;2024-02-23T13:47:59;5.97;;;4.50;;
52590;SDS011;38483;42.620;25.394;2024-02-23T13:50:28;4.83;;;4.13;;
52590;SDS011;38483;42.620;25.394;2024-02-23T13:52:57;5.07;;;4.57;;
52590;SDS011;38483;42.620;25.394;2024-02-23T13:55:24;6.10;;;4.60;;
52590;SDS011;38483;42.620;25.394;2024-02-23T13:57:52;5.10;;;4.20;;
52590;SDS011;38483;42.620;25.394;2024-02-23T14:00:19;5.97;;;4.50;;
52590;SDS011;38483;42.620;25.394;2024-02-23T14:02:47;6.30;;;4.03;;
52590;SDS011;38483;42.620;25.394;2024-02-23T14:05:15;6.37;;;4.37;;
52590;SDS011;38483;42.620;25.394;2024-02-23T14:07:45;7.20;;;4.20;;
52590;SDS011;38483;42.620;25.394;2024-02-23T14:10:12;6.00;;;4.40;;
52590;SDS011;38483;42.620;25.394;2024-02-23T14:12:40;5.10;;;4.27;;
52590;SDS011;38483;42.620;25.394;2024-02-23T14:15:08;7.90;;;5.00;;
52590;SDS011;38483;42.620;25.394;2024-02-23T14:17:35;5.57;;;4.30;;
52590;SDS011;38483;42.620;25.394;2024-02-23T14:20:03;5.43;;;4.67;;
52590;SDS011;38483;42.620;25.394;2024-02-23T14:22:30;6.27;;;4.53;;
52590;SDS011;38483;42.620;25.394;2024-02-23T14:24:58;3.90;;;3.50;;
52590;SDS011;38483;42.620;25.394;2024-02-23T14:27:26;5.50;;;4.37;;
52590;SDS011;38483;42.620;25.394;2024-02-23T14:29:57;5.93;;;4.73;;
52590;SDS011;38483;42.620;25.394;2024-02-23T14:32:25;7.87;;;4.10;;
52590;SDS011;38483;42.620;25.394;2024-02-23T14:34:52;13.57;;;4.87;;
52590;SDS011;38483;42.620;25.394;2024-02-23T14:37:20;6.90;;;5.00;;
52590;SDS011;38483;42.620;25.394;2024-02-23T14:40:40;5.53;;;3.90;;
52590;SDS011;38483;42.620;25.394;2024-02-23T14:44:02;7.73;;;4.20;;
52590;SDS011;38483;42.620;25.394;2024-02-23T14:47:06;7.33;;;4.77;;
52590;SDS011;38483;42.620;25.394;2024-02-23T14:49:33;7.70;;;4.17;;
52590;SDS011;38483;42.620;25.394;2024-02-23T14:52:00;3.50;;;2.93;;
52590;SDS011;38483;42.620;25.394;2024-02-23T14:54:27;8.67;;;3.80;;
52590;SDS011;38483;42.620;25.394;2024-02-23T14:56:56;4.37;;;3.30;;
52590;SDS011;38483;42.620;25.394;2024-02-23T14:59:23;8.43;;;4.10;;
52590;SDS011;38483;42.620;25.394;2024-02-23T15:01:50;5.33;;;4.23;;
52590;SDS011;38483;42.620;25.394;2024-02-23T15:04:17;5.00;;;3.47;;
52590;SDS011;38483;42.620;25.394;2024-02-23T15:06:45;7.07;;;4.50;;
52590;SDS011;38483;42.620;25.394;2024-02-23T15:09:12;6.00;;;4.43;;
52590;SDS011;38483;42.620;25.394;2024-02-23T15:11:39;5.17;;;3.80;;
52590;SDS011;38483;42.620;25.394;2024-02-23T15:14:06;8.07;;;5.30;;
52590;SDS011;38483;42.620;25.394;2024-02-23T15:16:34;9.43;;;5.03;;
52590;SDS011;38483;42.620;25.394;2024-02-23T15:19:01;8.17;;;6.07;;
52590;SDS011;38483;42.620;25.394;2024-02-23T15:21:30;8.13;;;5.33;;
52590;SDS011;38483;42.620;25.394;2024-02-23T15:23:57;4.87;;;4.23;;
52590;SDS011;38483;42.620;25.394;2024-02-23T15:26:24;8.37;;;4.57;;
52590;SDS011;38483;42.620;25.394;2024-02-23T15:28:51;8.27;;;4.50;;
52590;SDS011;38483;42.620;25.394;2024-02-23T15:31:20;4.80;;;3.60;;
52590;SDS011;38483;42.620;25.394;2024-02-23T15:33:48;8.03;;;3.90;;